createdAt,value
2019-04-11T00:01:16.350Z,3.47
2019-04-11T00:03:43.957Z,3.63
2019-04-11T00:06:11.840Z,5.63
2019-04-11T00:08:39.331Z,5.67
2019-04-11T00:11:06.687Z,2.27
2019-04-11T00:13:36.197Z,3.90
2019-04-11T00:16:04.669Z,7.07
2019-04-11T00:18:32.457Z,2.90
2019-04-11T00:21:00.295Z,3.77
2019-04-11T00:23:28.110Z,2.53
2019-04-11T00:25:55.925Z,2.47
2019-04-11T00:28:23.705Z,5.47
2019-04-11T00:30:52.435Z,4.40
2019-04-11T00:33:20.210Z,4.00
2019-04-11T00:35:48.066Z,2.87
2019-04-11T00:38:15.991Z,5.10
2019-04-11T00:40:43.771Z,2.97
2019-04-11T00:43:11.494Z,9.17
2019-04-11T00:45:40.031Z,3.23
2019-04-11T00:48:07.475Z,3.57
2019-04-11T00:50:35.078Z,4.03
2019-04-11T00:53:03.477Z,3.10
2019-04-11T00:55:31.461Z,3.43
2019-04-11T00:57:58.925Z,2.93
2019-04-11T01:00:27.067Z,5.20
2019-04-11T01:02:55.833Z,2.50
2019-04-11T01:05:23.569Z,2.97
2019-04-11T01:07:51.313Z,4.93
2019-04-11T01:10:18.889Z,3.17
2019-04-11T01:12:46.943Z,6.10
2019-04-11T01:15:17.542Z,2.97
2019-04-11T01:17:45.451Z,3.43
2019-04-11T01:20:13.290Z,3.83
2019-04-11T01:22:42.437Z,4.43
2019-04-11T01:25:10.472Z,3.17
2019-04-11T01:27:39.438Z,8.30
2019-04-11T01:30:11.712Z,4.03
2019-04-11T01:32:40.218Z,4.17
2019-04-11T01:35:08.860Z,5.17
2019-04-11T01:37:37.666Z,3.83
2019-04-11T01:40:05.578Z,4.87
2019-04-11T01:42:33.474Z,4.70
2019-04-11T01:45:01.108Z,2.97
2019-04-11T01:47:49.652Z,5.37
2019-04-11T01:50:21.003Z,8.40
2019-04-11T01:52:48.746Z,6.77
2019-04-11T01:55:16.469Z,5.47
2019-04-11T01:57:44.656Z,6.73
2019-04-11T02:00:22.192Z,2.33
2019-04-11T02:02:54.935Z,2.93
2019-04-11T02:05:25.230Z,3.63
2019-04-11T02:07:53.240Z,5.70
2019-04-11T02:10:21.055Z,4.47
2019-04-11T02:12:48.517Z,3.13
2019-04-11T02:15:16.453Z,3.87
2019-04-11T02:17:43.999Z,4.53
2019-04-11T02:20:12.576Z,3.97
2019-04-11T02:22:59.109Z,3.83
2019-04-11T02:25:32.931Z,4.30
2019-04-11T02:28:01.361Z,2.97
2019-04-11T02:30:30.655Z,4.33
2019-04-11T02:32:58.401Z,4.03
2019-04-11T02:35:26.858Z,5.80
2019-04-11T02:37:54.959Z,3.63
2019-04-11T02:40:24.631Z,3.73
2019-04-11T02:42:52.417Z,7.47
2019-04-11T02:45:32.663Z,4.03
2019-04-11T02:47:51.229Z,3.60
2019-04-11T02:50:19.837Z,4.47
2019-04-11T02:52:49.584Z,8.80
2019-04-11T02:55:19.069Z,4.27
2019-04-11T02:57:48.299Z,3.87
2019-04-11T03:00:16.382Z,5.47
2019-04-11T03:02:45.135Z,4.20
2019-04-11T03:05:13.682Z,4.77
2019-04-11T03:07:42.321Z,5.43
2019-04-11T03:10:12.307Z,6.50
2019-04-11T03:12:40.538Z,8.17
2019-04-11T03:15:24.137Z,7.03
2019-04-11T03:17:43.097Z,11.37
2019-04-11T03:20:15.440Z,3.83
2019-04-11T03:22:36.212Z,4.23
2019-04-11T03:25:06.074Z,5.80
2019-04-11T03:27:34.891Z,3.77
2019-04-11T03:30:03.676Z,5.60
2019-04-11T03:36:12.318Z,4.97
2019-04-11T03:38:00.435Z,4.80
2019-04-11T03:40:22.407Z,4.63
2019-04-11T03:42:46.237Z,6.13
2019-04-11T03:45:25.575Z,7.47
2019-04-11T03:47:44.676Z,7.33
2019-04-11T03:50:08.457Z,6.23
2019-04-11T03:52:34.619Z,4.87
2019-04-11T03:55:05.930Z,6.67
2019-04-11T03:57:34.300Z,4.43
2019-04-11T04:00:03.554Z,4.37
2019-04-11T04:02:32.648Z,6.67
2019-04-11T04:05:01.374Z,5.93
2019-04-11T04:07:29.775Z,6.10
2019-04-11T04:09:58.537Z,5.07
2019-04-11T04:12:27.305Z,7.07
2019-04-11T04:15:41.047Z,5.37
2019-04-11T04:18:17.189Z,5.50
2019-04-11T04:21:06.991Z,3.47
2019-04-11T04:23:38.133Z,4.70
2019-04-11T04:26:09.557Z,9.73
2019-04-11T04:28:35.688Z,4.30
2019-04-11T04:31:04.605Z,6.53
2019-04-11T04:33:35.073Z,4.90
2019-04-11T04:36:02.448Z,5.40
2019-04-11T04:38:31.645Z,6.07
2019-04-11T04:41:12.687Z,5.80
2019-04-11T04:43:29.555Z,4.77
2019-04-11T04:46:17.351Z,4.67
2019-04-11T04:48:29.512Z,4.23
2019-04-11T04:50:57.687Z,5.03
2019-04-11T04:53:28.098Z,8.53
2019-04-11T04:55:54.953Z,5.27
2019-04-11T04:58:24.332Z,4.03
2019-04-11T05:00:53.834Z,7.87
2019-04-11T05:03:22.219Z,8.83
2019-04-11T05:05:51.060Z,5.70
2019-04-11T05:08:20.625Z,6.47
2019-04-11T05:10:49.155Z,6.17
2019-04-11T05:13:17.214Z,6.47
2019-04-11T05:15:45.392Z,6.87
2019-04-11T05:18:15.684Z,8.23
2019-04-11T05:20:42.230Z,7.67
2019-04-11T05:23:09.645Z,6.27
2019-04-11T05:25:37.077Z,4.20
2019-04-11T05:28:04.452Z,5.97
2019-04-11T05:30:31.893Z,6.13
2019-04-11T05:32:59.774Z,4.53
2019-04-11T05:35:27.390Z,12.23
2019-04-11T05:37:55.733Z,6.20
2019-04-11T05:40:23.955Z,6.57
2019-04-11T05:42:53.837Z,8.23
2019-04-11T05:45:22.633Z,5.77
2019-04-11T05:47:53.535Z,5.33
2019-04-11T05:50:31.923Z,6.63
2019-04-11T05:53:03.537Z,7.17
2019-04-11T05:55:41.396Z,6.07
2019-04-11T05:58:12.285Z,9.83
2019-04-11T06:01:01.219Z,8.20
2019-04-11T06:03:28.735Z,6.77
2019-04-11T06:06:36.387Z,5.40
2019-04-11T06:09:06.316Z,9.17
2019-04-11T06:11:56.058Z,7.87
2019-04-11T06:14:41.577Z,5.97
2019-04-11T06:17:11.794Z,7.73
2019-04-11T06:20:06.048Z,4.60
2019-04-11T06:22:35.963Z,4.57
2019-04-11T06:25:30.912Z,6.83
2019-04-11T06:28:09.570Z,7.07
2019-04-11T06:30:56.946Z,5.50
2019-04-11T06:33:30.549Z,16.00
2019-04-11T06:36:21.001Z,8.67
2019-04-11T06:39:07.215Z,11.03
2019-04-11T06:41:46.569Z,7.40
2019-04-11T06:44:32.178Z,9.93
2019-04-11T06:47:08.295Z,6.63
2019-04-11T06:49:55.089Z,7.03
2019-04-11T06:52:24.430Z,11.43
2019-04-11T06:55:26.722Z,7.53
2019-04-11T06:57:58.555Z,6.37
2019-04-11T07:00:27.299Z,6.43
2019-04-11T07:02:59.253Z,9.57
2019-04-11T07:05:28.957Z,7.33
2019-04-11T07:07:57.783Z,8.40
2019-04-11T07:10:31.155Z,8.20
2019-04-11T07:13:05.975Z,9.13
2019-04-11T07:15:37.693Z,5.83
2019-04-11T07:18:24.701Z,7.30
2019-04-11T07:20:56.089Z,8.40
2019-04-11T07:23:44.234Z,12.13
2019-04-11T07:26:13.841Z,6.23
2019-04-11T07:28:54.715Z,6.53
2019-04-11T07:31:57.051Z,9.17
2019-04-11T07:34:47.800Z,10.23
2019-04-11T07:37:49.396Z,5.90
2019-04-11T07:40:36.505Z,9.10
2019-04-11T07:43:24.772Z,8.33
2019-04-11T07:46:17.700Z,11.73
2019-04-11T07:48:45.128Z,11.00
2019-04-11T07:51:41.174Z,5.67
2019-04-11T07:54:20.282Z,6.47
2019-04-11T07:56:52.798Z,4.73
2019-04-11T07:59:33.768Z,9.03
2019-04-11T08:02:23.602Z,6.30
2019-04-11T08:05:00.014Z,4.63
2019-04-11T08:07:45.481Z,7.30
2019-04-11T08:10:18.257Z,6.57
2019-04-11T08:12:45.997Z,6.97
2019-04-11T08:15:33.505Z,6.80
2019-04-11T08:18:06.330Z,9.13
2019-04-11T08:20:55.485Z,15.03
2019-04-11T08:23:23.512Z,6.27
2019-04-11T08:26:11.548Z,5.93
2019-04-11T08:28:41.809Z,7.50
2019-04-11T08:31:46.761Z,6.93
2019-04-11T08:34:15.249Z,9.87
2019-04-11T08:37:17.636Z,9.23
2019-04-11T08:39:49.090Z,6.70
2019-04-11T08:42:31.474Z,12.13
2019-04-11T08:44:59.168Z,7.40
2019-04-11T08:47:41.767Z,8.30
2019-04-11T08:49:59.494Z,6.43
2019-04-11T08:52:40.345Z,11.90
2019-04-11T08:55:12.393Z,10.23
2019-04-11T08:57:42.677Z,6.40
2019-04-11T09:00:34.641Z,7.33
2019-04-11T09:03:10.296Z,6.23
2019-04-11T09:05:55.307Z,8.37
2019-04-11T09:09:01.494Z,7.40
2019-04-11T09:11:32.959Z,7.90
2019-04-11T09:14:19.966Z,10.23
2019-04-11T09:17:16.500Z,8.83
2019-04-11T09:20:21.692Z,6.47
2019-04-11T09:23:09.327Z,7.43
2019-04-11T09:26:14.616Z,7.37
2019-04-11T09:28:44.372Z,7.57
2019-04-11T09:31:41.424Z,7.10
2019-04-11T09:34:44.091Z,8.13
2019-04-11T09:40:28.030Z,5.30
2019-04-11T09:43:22.030Z,6.73
2019-04-11T09:46:12.390Z,8.83
2019-04-11T09:49:04.505Z,6.67
2019-04-11T09:51:49.777Z,7.57
2019-04-11T09:54:42.055Z,7.03
2019-04-11T09:57:29.160Z,9.57
2019-04-11T10:00:24.718Z,5.73
2019-04-11T10:02:56.276Z,11.67
2019-04-11T10:05:32.067Z,8.53
2019-04-11T10:08:30.899Z,6.83
2019-04-11T10:11:18.027Z,6.70
2019-04-11T10:13:57.562Z,8.00
2019-04-11T10:16:50.588Z,12.67
2019-04-11T10:19:38.344Z,6.30
2019-04-11T10:22:34.348Z,5.63
2019-04-11T10:25:10.758Z,7.83
2019-04-11T10:28:00.709Z,7.03
2019-04-11T10:30:48.251Z,8.23
2019-04-11T10:33:44.878Z,8.40
2019-04-11T10:36:23.731Z,6.47
2019-04-11T10:39:00.364Z,6.57
2019-04-11T10:41:38.202Z,9.03
2019-04-11T10:44:05.720Z,8.53
2019-04-11T10:46:59.851Z,8.47
2019-04-11T10:49:50.533Z,9.23
2019-04-11T10:52:24.707Z,7.37
2019-04-11T10:55:23.638Z,11.90
2019-04-11T10:58:06.774Z,8.33
2019-04-11T11:00:43.201Z,10.63
2019-04-11T11:03:29.055Z,11.07
2019-04-11T11:05:58.157Z,8.03
2019-04-11T11:08:41.835Z,8.43
2019-04-11T11:11:30.371Z,7.13
2019-04-11T11:14:20.771Z,8.33
2019-04-11T11:16:58.882Z,10.80
2019-04-11T11:19:57.388Z,8.97
2019-04-11T11:22:39.049Z,9.23
2019-04-11T11:25:27.271Z,7.63
2019-04-11T11:27:55.695Z,7.60
2019-04-11T11:30:49.498Z,8.17
2019-04-11T11:33:23.901Z,7.23
2019-04-11T11:36:19.266Z,12.07
2019-04-11T11:39:00.411Z,9.17
2019-04-11T11:41:52.432Z,6.87
2019-04-11T11:44:22.412Z,8.43
2019-04-11T11:47:07.982Z,6.80
2019-04-11T11:49:45.876Z,7.20
2019-04-11T11:52:33.328Z,7.10
2019-04-11T11:54:59.897Z,8.70
2019-04-11T11:57:35.086Z,8.17
2019-04-11T12:00:12.676Z,6.47
2019-04-11T12:02:46.450Z,8.40
2019-04-11T12:05:18.610Z,8.10
2019-04-11T12:08:01.203Z,6.00
2019-04-11T12:10:45.898Z,7.87
2019-04-11T12:13:26.949Z,8.00
2019-04-11T12:16:18.269Z,7.63
2019-04-11T12:19:18.048Z,6.57
2019-04-11T12:21:48.898Z,7.33
2019-04-11T12:24:25.077Z,9.90
2019-04-11T12:27:02.382Z,7.30
2019-04-11T12:29:48.033Z,9.27
2019-04-11T12:32:16.878Z,9.17
2019-04-11T12:35:04.067Z,8.13
2019-04-11T12:37:36.168Z,8.23
2019-04-11T12:40:42.265Z,7.63
2019-04-11T12:43:10.283Z,7.67
2019-04-11T12:45:55.984Z,7.13
2019-04-11T12:48:31.135Z,6.80
2019-04-11T12:51:18.028Z,7.60
2019-04-11T12:53:46.820Z,7.77
2019-04-11T12:56:36.220Z,13.37
2019-04-11T12:59:09.671Z,9.40
2019-04-11T13:01:59.601Z,12.50
2019-04-11T13:04:31.712Z,6.87
2019-04-11T13:07:10.010Z,6.33
2019-04-11T13:09:40.760Z,7.33
2019-04-11T13:12:09.634Z,10.90
2019-04-11T13:14:44.906Z,8.30
2019-04-11T13:17:16.039Z,7.73
2019-04-11T13:20:04.912Z,8.40
2019-04-11T13:22:32.064Z,10.33
2019-04-11T13:25:31.145Z,8.80
2019-04-11T13:27:58.494Z,9.10
2019-04-11T13:30:57.809Z,9.30
2019-04-11T13:33:28.152Z,10.07
2019-04-11T13:36:05.122Z,8.63
2019-04-11T13:38:52.670Z,10.57
2019-04-11T13:41:51.636Z,9.93
2019-04-11T13:44:35.044Z,9.77
2019-04-11T13:47:34.026Z,9.33
2019-04-11T13:50:16.246Z,8.70
2019-04-11T13:53:04.148Z,11.00
2019-04-11T13:55:34.340Z,12.70
2019-04-11T13:58:36.432Z,11.73
2019-04-11T14:01:09.882Z,11.50
2019-04-11T14:03:55.098Z,9.93
2019-04-11T14:06:38.635Z,11.33
2019-04-11T14:09:41.214Z,11.67
2019-04-11T14:12:12.810Z,10.73
2019-04-11T14:15:05.998Z,11.23
2019-04-11T14:17:57.513Z,15.77
2019-04-11T14:20:34.042Z,10.20
2019-04-11T14:23:23.682Z,14.80
2019-04-11T14:26:09.431Z,13.57
2019-04-11T14:28:40.131Z,12.47
2019-04-11T14:31:25.677Z,9.73
2019-04-11T14:33:58.056Z,12.77
2019-04-11T14:36:48.032Z,14.00
2019-04-11T14:39:16.315Z,10.70
2019-04-11T14:41:59.771Z,13.30
2019-04-11T14:44:27.420Z,10.87
2019-04-11T14:47:34.724Z,12.77
2019-04-11T14:50:02.811Z,11.87
2019-04-11T14:52:50.828Z,11.57
2019-04-11T14:55:19.713Z,12.27
2019-04-11T14:58:18.752Z,11.27
2019-04-11T15:00:46.197Z,12.37
2019-04-11T15:03:48.349Z,11.03
2019-04-11T15:06:28.018Z,9.57
2019-04-11T15:09:23.980Z,13.07
2019-04-11T15:11:56.217Z,9.87
2019-04-11T15:14:41.976Z,9.17
2019-04-11T15:17:12.020Z,10.50
2019-04-11T15:19:42.685Z,10.83
2019-04-11T15:22:35.470Z,11.87
2019-04-11T15:25:08.645Z,12.70
2019-04-11T15:28:12.717Z,11.30
2019-04-11T15:30:43.200Z,8.58
2019-04-11T15:33:27.889Z,12.23
2019-04-11T15:35:57.750Z,12.77
2019-04-11T15:38:56.343Z,17.10
2019-04-11T15:41:23.826Z,10.75
2019-04-11T15:44:09.263Z,9.43
2019-04-11T15:46:36.631Z,9.40
2019-04-11T15:49:31.591Z,9.45
2019-04-11T15:52:08.152Z,9.23
2019-04-11T15:54:55.081Z,10.70
2019-04-11T15:57:43.067Z,15.07
2019-04-11T16:00:31.112Z,12.37
2019-04-11T16:03:00.944Z,9.60
2019-04-11T16:05:48.476Z,8.67
2019-04-11T16:08:43.546Z,11.47
2019-04-11T16:11:51.391Z,12.07
2019-04-11T16:14:20.823Z,9.30
2019-04-11T16:17:13.748Z,9.73
2019-04-11T16:19:57.274Z,8.93
2019-04-11T16:22:43.331Z,12.77
2019-04-11T16:25:13.044Z,10.40
2019-04-11T16:28:07.279Z,9.00
2019-04-11T16:30:56.469Z,8.43
2019-04-11T16:33:45.709Z,10.67
2019-04-11T16:36:31.226Z,9.33
2019-04-11T16:39:19.922Z,8.83
2019-04-11T16:42:13.139Z,8.70
2019-04-11T16:45:11.422Z,9.53
2019-04-11T16:47:43.023Z,8.67
2019-04-11T16:50:10.351Z,9.23
2019-04-11T16:52:38.526Z,9.07
2019-04-11T16:55:09.783Z,8.20
2019-04-11T16:57:36.188Z,9.17
2019-04-11T17:00:08.962Z,7.67
2019-04-11T17:02:36.143Z,10.20
2019-04-11T17:05:05.388Z,8.77
2019-04-11T17:07:56.167Z,9.63
2019-04-11T17:10:42.189Z,11.70
2019-04-11T17:13:09.598Z,8.23
2019-04-11T17:15:36.951Z,9.73
2019-04-11T17:18:04.319Z,8.30
2019-04-11T17:20:35.704Z,8.20
2019-04-11T17:23:01.010Z,7.37
2019-04-11T17:25:28.553Z,9.30
2019-04-11T17:27:56.274Z,8.70
2019-04-11T17:30:24.639Z,7.20
2019-04-11T17:32:55.346Z,10.23
2019-04-11T17:35:21.834Z,10.10
2019-04-11T17:37:49.169Z,7.20
2019-04-11T17:40:16.628Z,8.33
2019-04-11T17:42:44.558Z,7.77
2019-04-11T17:45:12.143Z,8.00
2019-04-11T17:47:39.613Z,7.27
2019-04-11T17:50:07.298Z,9.57
2019-04-11T17:52:43.865Z,8.10
2019-04-11T17:55:17.354Z,10.47
2019-04-11T17:57:44.804Z,7.43
2019-04-11T18:00:20.323Z,9.60
2019-04-11T18:02:47.693Z,6.43
2019-04-11T18:05:17.111Z,6.90
2019-04-11T18:07:46.917Z,8.30
2019-04-11T18:10:13.633Z,9.00
2019-04-11T18:12:40.961Z,7.70
2019-04-11T18:15:08.415Z,8.47
2019-04-11T18:17:35.816Z,8.30
2019-04-11T18:20:04.560Z,7.10
2019-04-11T18:22:32.534Z,9.10
2019-04-11T18:25:00.200Z,8.50
2019-04-11T18:27:27.669Z,6.80
2019-04-11T18:29:57.058Z,8.27
2019-04-11T18:32:24.387Z,6.77
2019-04-11T18:34:51.759Z,8.50
2019-04-11T18:37:19.127Z,7.27
2019-04-11T18:39:46.501Z,9.67
2019-04-11T18:42:13.873Z,10.10
2019-04-11T18:44:41.362Z,8.80
2019-04-11T18:47:08.817Z,8.40
2019-04-11T18:49:36.142Z,7.07
2019-04-11T18:52:03.617Z,7.77
2019-04-11T18:54:31.009Z,6.50
2019-04-11T18:56:58.439Z,8.37
2019-04-11T18:59:25.893Z,14.80
2019-04-11T19:01:53.334Z,8.70
2019-04-11T19:04:31.560Z,7.70
2019-04-11T19:06:50.075Z,6.90
2019-04-11T19:09:18.616Z,6.03
2019-04-11T19:11:46.946Z,9.60
2019-04-11T19:14:16.071Z,8.10
2019-04-11T19:16:50.944Z,15.03
2019-04-11T19:19:19.188Z,9.23
2019-04-11T19:21:50.863Z,12.77
2019-04-11T19:24:15.964Z,7.57
2019-04-11T19:26:46.098Z,11.90
2019-04-11T19:29:12.666Z,6.37
2019-04-11T19:31:41.113Z,6.50
2019-04-11T19:34:08.986Z,7.37
2019-04-11T19:36:36.439Z,7.57
2019-04-11T19:39:06.386Z,8.83
2019-04-11T19:41:33.884Z,8.93
2019-04-11T19:44:01.527Z,7.47
2019-04-11T19:46:28.890Z,9.63
2019-04-11T19:48:59.283Z,14.03
2019-04-11T19:51:28.565Z,7.13
2019-04-11T19:53:54.865Z,7.17
2019-04-11T19:56:29.357Z,10.93
2019-04-11T19:58:56.756Z,10.53
2019-04-11T20:01:24.243Z,7.97
2019-04-11T20:03:53.793Z,6.50
2019-04-11T20:06:21.131Z,9.60
2019-04-11T20:08:49.082Z,8.90
2019-04-11T20:11:16.569Z,10.10
2019-04-11T20:13:48.282Z,9.87
2019-04-11T20:16:15.884Z,10.07
2019-04-11T20:18:50.745Z,10.97
2019-04-11T20:21:12.720Z,10.23
2019-04-11T20:23:41.786Z,13.23
2019-04-11T20:26:10.014Z,11.47
2019-04-11T20:28:37.377Z,13.50
2019-04-11T20:31:04.753Z,8.50
2019-04-11T20:33:34.726Z,10.07
2019-04-11T20:36:08.230Z,10.07
2019-04-11T20:38:36.787Z,8.37
2019-04-11T20:41:04.202Z,8.80
2019-04-11T20:43:31.624Z,10.87
2019-04-11T20:45:59.082Z,9.17
2019-04-11T20:48:26.384Z,9.13
2019-04-11T20:50:53.729Z,8.57
2019-04-11T20:53:21.189Z,7.40
2019-04-11T20:55:52.300Z,8.10
2019-04-11T20:58:27.284Z,8.23
2019-04-11T21:00:50.691Z,7.90
2019-04-11T21:03:18.372Z,9.27
2019-04-11T21:05:45.886Z,10.87
2019-04-11T21:08:13.407Z,10.23
2019-04-11T21:10:40.844Z,7.17
2019-04-11T21:13:08.170Z,8.93
2019-04-11T21:15:35.672Z,9.97
2019-04-11T21:18:04.597Z,8.20
2019-04-11T21:20:32.058Z,12.60
2019-04-11T21:22:59.719Z,11.67
2019-04-11T21:25:28.483Z,9.37
2019-04-11T21:27:58.829Z,7.33
2019-04-11T21:30:27.985Z,9.10
2019-04-11T21:32:55.104Z,11.50
2019-04-11T21:35:22.533Z,14.27
2019-04-11T21:37:50.065Z,9.20
2019-04-11T21:40:17.466Z,10.87
2019-04-11T21:42:44.853Z,7.90
2019-04-11T21:45:13.102Z,9.40
2019-04-11T21:47:40.581Z,12.73
2019-04-11T21:50:09.422Z,8.10
2019-04-11T21:52:43.474Z,9.50
2019-04-11T21:55:09.513Z,17.97
2019-04-11T21:57:36.893Z,8.77
2019-04-11T22:00:13.571Z,13.07
2019-04-11T22:02:41.185Z,10.70
2019-04-11T22:05:09.373Z,7.53
2019-04-11T22:07:36.969Z,8.93
2019-04-11T22:10:07.784Z,10.43
2019-04-11T22:12:50.109Z,15.47
2019-04-11T22:15:17.562Z,10.20
2019-04-11T22:17:45.532Z,9.67
2019-04-11T22:20:14.091Z,9.37
2019-04-11T22:22:45.078Z,14.27
2019-04-11T22:25:12.553Z,11.83
2019-04-11T22:27:39.935Z,12.87
2019-04-11T22:30:08.139Z,14.97
2019-04-11T22:32:35.791Z,12.53
2019-04-11T22:35:05.075Z,13.23
2019-04-11T22:37:32.521Z,10.43
2019-04-11T22:40:02.048Z,14.60
2019-04-11T22:42:29.235Z,11.57
2019-04-11T22:44:56.719Z,10.40
2019-04-11T22:47:24.561Z,16.40
2019-04-11T22:49:52.107Z,9.93
2019-04-11T22:52:19.475Z,11.43
2019-04-11T22:54:46.869Z,10.33
2019-04-11T22:57:14.361Z,12.27
2019-04-11T22:59:44.066Z,10.73
2019-04-11T23:02:19.609Z,10.67
2019-04-11T23:04:47.622Z,12.40
2019-04-11T23:07:17.781Z,10.90
2019-04-11T23:09:44.379Z,10.17
2019-04-11T23:12:12.747Z,9.73
2019-04-11T23:14:41.011Z,14.03
2019-04-11T23:17:08.596Z,11.97
2019-04-11T23:19:36.068Z,14.87
2019-04-11T23:22:03.441Z,9.77
2019-04-11T23:24:30.883Z,9.80
2019-04-11T23:26:58.225Z,11.20
2019-04-11T23:29:25.603Z,10.47
2019-04-11T23:31:53.075Z,12.70
2019-04-11T23:34:22.113Z,11.47
2019-04-11T23:36:51.298Z,13.20
2019-04-11T23:39:22.720Z,11.37
2019-04-11T23:41:49.815Z,13.67
2019-04-11T23:44:18.078Z,10.37
2019-04-11T23:46:46.759Z,10.27
2019-04-11T23:49:14.832Z,11.50
2019-04-11T23:51:42.264Z,11.33
2019-04-11T23:54:09.704Z,13.10
2019-04-11T23:56:37.050Z,10.17
2019-04-11T23:59:04.680Z,10.33
